Aviation Digital Data Service (ADDS)

Output produced by METARs form (1217 UTC 19 January 2019)
found at http://www.aviationweather.gov/metar/data/
 
METAR text: KDTW 191203Z 04010KT 3SM -SN BR BKN010 OVC020 M06/M08 A3013 RMK AO2 P0000 T10561078 $
Conditions at: KDTW (DETROIT/WAYNE , MI, US) observed 1203 UTC 19 January 2019
Temperature: -5.6°C (22°F)
Dewpoint: -7.8°C (18°F) [RH = 84%]
Pressure (altimeter): 30.13 inches Hg (1020.4 mb)
Winds: from the NE (40 degrees) at 12 MPH (10 knots; 5.1 m/s)
Visibility: 3 miles ( 5 km)
Ceiling: 1000 feet AGL
Clouds: broken clouds at 1000 feet AGL
overcast cloud deck at 2000 feet AGL
Weather: -SN BR  (light snow, mist)
SOME DATA ABOVE MAY BE INACCURATE!!!
"$" is an indication the sensor requires maintenance

METAR text: KDTW 191153Z 04011KT 2SM -SN BR BKN010 OVC020 M06/M08 A3015 RMK AO2 SFC VIS 2 1/2 SLP217 P0003 60012 70012 T10561078 11028 21056 56019 $
Conditions at: KDTW (DETROIT/WAYNE , MI, US) observed 1153 UTC 19 January 2019
Temperature: -5.6°C (22°F)
Dewpoint: -7.8°C (18°F) [RH = 84%]
Pressure (altimeter): 30.15 inches Hg (1021.1 mb)
[Sea-level pressure: 1021.7 mb]
Winds: from the NE (40 degrees) at 13 MPH (11 knots; 5.7 m/s)
Visibility: 2.00 miles (3.22 km)
Ceiling: 1000 feet AGL
Clouds: broken clouds at 1000 feet AGL
overcast cloud deck at 2000 feet AGL
Weather: -SN BR  (light snow, mist)
SOME DATA ABOVE MAY BE INACCURATE!!!
"$" is an indication the sensor requires maintenance

METAR text: KDTW 191129Z 05009KT 1SM R03R/P6000FT -SN BR BKN010 OVC020 M06/M07 A3014 RMK AO2 P0002 T10561072
Conditions at: KDTW (DETROIT/WAYNE , MI, US) observed 1129 UTC 19 January 2019
Temperature: -5.6°C (22°F)
Dewpoint: -7.2°C (19°F) [RH = 88%]
Pressure (altimeter): 30.14 inches Hg (1020.7 mb)
Winds: from the NE (50 degrees) at 10 MPH (9 knots; 4.6 m/s)
Visibility: 1.00 miles (1.61 km)
Ceiling: 1000 feet AGL
Clouds: broken clouds at 1000 feet AGL
overcast cloud deck at 2000 feet AGL
Weather: -SN BR  (light snow, mist)

METAR text: KDTW 191053Z 03007KT 3/4SM R03R/5000VP6000FT -SN BR OVC010 M06/M08 A3015 RMK AO2 TWR VIS 1 SLP220 P0004 T10561078
Conditions at: KDTW (DETROIT/WAYNE , MI, US) observed 1053 UTC 19 January 2019
Temperature: -5.6°C (22°F)
Dewpoint: -7.8°C (18°F) [RH = 84%]
Pressure (altimeter): 30.15 inches Hg (1021.1 mb)
[Sea-level pressure: 1022.0 mb]
Winds: from the NNE (30 degrees) at 8 MPH (7 knots; 3.6 m/s)
Visibility: 0.75 miles (1.21 km)
Ceiling: 1000 feet AGL
Clouds: overcast cloud deck at 1000 feet AGL
Weather: -SN BR  (light snow, mist)

METAR text: KDTW 191032Z 04008KT 3/4SM R03R/5000VP6000FT -SN BR OVC010 M06/M08 A3017 RMK AO2 TWR VIS 1 P0002 T10561078
Conditions at: KDTW (DETROIT/WAYNE , MI, US) observed 1032 UTC 19 January 2019
Temperature: -5.6°C (22°F)
Dewpoint: -7.8°C (18°F) [RH = 84%]
Pressure (altimeter): 30.17 inches Hg (1021.8 mb)
Winds: from the NE (40 degrees) at 9 MPH (8 knots; 4.1 m/s)
Visibility: 0.75 miles (1.21 km)
Ceiling: 1000 feet AGL
Clouds: overcast cloud deck at 1000 feet AGL
Weather: -SN BR  (light snow, mist)

METAR text: KDTW 191020Z 04007KT 1SM R03R/P6000FT -SN FEW008 BKN014 OVC020 M05/M08 A3018 RMK AO2 SFC VIS 1 1/4 P0001 T10501078
Conditions at: KDTW (DETROIT/WAYNE , MI, US) observed 1020 UTC 19 January 2019
Temperature: -5.0°C (23°F)
Dewpoint: -7.8°C (18°F) [RH = 81%]
Pressure (altimeter): 30.18 inches Hg (1022.1 mb)
Winds: from the NE (40 degrees) at 8 MPH (7 knots; 3.6 m/s)
Visibility: 1.00 miles (1.61 km)
Ceiling: 1400 feet AGL
Clouds: few clouds at 800 feet AGL
broken clouds at 1400 feet AGL
overcast cloud deck at 2000 feet AGL
Weather: -SN  (light snow)

METAR text: KDTW 191006Z 04007KT 1SM R03R/P6000FT -SN BR FEW008 OVC022 M06/M08 A3017 RMK AO2 P0001 T10561078
Conditions at: KDTW (DETROIT/WAYNE , MI, US) observed 1006 UTC 19 January 2019
Temperature: -5.6°C (22°F)
Dewpoint: -7.8°C (18°F) [RH = 84%]
Pressure (altimeter): 30.17 inches Hg (1021.8 mb)
Winds: from the NE (40 degrees) at 8 MPH (7 knots; 3.6 m/s)
Visibility: 1.00 miles (1.61 km)
Ceiling: 2200 feet AGL
Clouds: few clouds at 800 feet AGL
overcast cloud deck at 2200 feet AGL
Weather: -SN BR  (light snow, mist)

METAR text: KDTW 190953Z 03008KT 3/4SM R03R/P6000FT -SN BR OVC018 M05/M07 A3016 RMK AO2 TWR VIS 1 SLP223 P0004 T10501072
Conditions at: KDTW (DETROIT/WAYNE , MI, US) observed 0953 UTC 19 January 2019
Temperature: -5.0°C (23°F)
Dewpoint: -7.2°C (19°F) [RH = 85%]
Pressure (altimeter): 30.16 inches Hg (1021.4 mb)
[Sea-level pressure: 1022.3 mb]
Winds: from the NNE (30 degrees) at 9 MPH (8 knots; 4.1 m/s)
Visibility: 0.75 miles (1.21 km)
Ceiling: 1800 feet AGL
Clouds: overcast cloud deck at 1800 feet AGL
Weather: -SN BR  (light snow, mist)

METAR text: KDTW 190946Z 04007KT 3/4SM R03R/P6000FT -SN OVC015 M05/M08 A3017 RMK AO2 TWR VIS 1 P0004 T10501078
Conditions at: KDTW (DETROIT/WAYNE , MI, US) observed 0946 UTC 19 January 2019
Temperature: -5.0°C (23°F)
Dewpoint: -7.8°C (18°F) [RH = 81%]
Pressure (altimeter): 30.17 inches Hg (1021.8 mb)
Winds: from the NE (40 degrees) at 8 MPH (7 knots; 3.6 m/s)
Visibility: 0.75 miles (1.21 km)
Ceiling: 1500 feet AGL
Clouds: overcast cloud deck at 1500 feet AGL
Weather: -SN  (light snow)

METAR text: KDTW 190908Z 03007KT 3/4SM R03R/P6000FT -SN BR FEW006 OVC011 M05/M07 A3021 RMK AO2 TWR VIS 1 P0001 T10501072
Conditions at: KDTW (DETROIT/WAYNE , MI, US) observed 0908 UTC 19 January 2019
Temperature: -5.0°C (23°F)
Dewpoint: -7.2°C (19°F) [RH = 85%]
Pressure (altimeter): 30.21 inches Hg (1023.1 mb)
Winds: from the NNE (30 degrees) at 8 MPH (7 knots; 3.6 m/s)
Visibility: 0.75 miles (1.21 km)
Ceiling: 1100 feet AGL
Clouds: few clouds at 600 feet AGL
overcast cloud deck at 1100 feet AGL
Weather: -SN BR  (light snow, mist)

METAR text: KDTW 190853Z 04006KT 1SM R03R/6000VP6000FT -SN OVC012 M04/M07 A3020 RMK AO2 TWR VIS 2 SLP236 P0001 60001 T10441072 53005
Conditions at: KDTW (DETROIT/WAYNE , MI, US) observed 0853 UTC 19 January 2019
Temperature: -4.4°C (24°F)
Dewpoint: -7.2°C (19°F) [RH = 81%]
Pressure (altimeter): 30.20 inches Hg (1022.8 mb)
[Sea-level pressure: 1023.6 mb]
Winds: from the NE (40 degrees) at 7 MPH (6 knots; 3.1 m/s)
Visibility: 1.00 miles (1.61 km)
Ceiling: 1200 feet AGL
Clouds: overcast cloud deck at 1200 feet AGL
Weather: -SN  (light snow)

METAR text: KDTW 190850Z 04005KT 1SM R03R/6000VP6000FT -SN OVC012 M04/M07 A3020 RMK AO2 TWR VIS 2 P0001
Conditions at: KDTW (DETROIT/WAYNE , MI, US) observed 0850 UTC 19 January 2019
Temperature: -4.0°C (25°F)
Dewpoint: -7.0°C (19°F) [RH = 80%]
Pressure (altimeter): 30.20 inches Hg (1022.8 mb)
Winds: from the NE (40 degrees) at 6 MPH (5 knots; 2.6 m/s)
Visibility: 1.00 miles (1.61 km)
Ceiling: 1200 feet AGL
Clouds: overcast cloud deck at 1200 feet AGL
Weather: -SN  (light snow)

METAR text: KDTW 190838Z 05007KT 1 1/4SM -SN FEW010 BKN015 OVC025 M04/M07 A3019 RMK AO2 TWR VIS 2 P0000 T10441072
Conditions at: KDTW (DETROIT/WAYNE , MI, US) observed 0838 UTC 19 January 2019
Temperature: -4.4°C (24°F)
Dewpoint: -7.2°C (19°F) [RH = 81%]
Pressure (altimeter): 30.19 inches Hg (1022.4 mb)
Winds: from the NE (50 degrees) at 8 MPH (7 knots; 3.6 m/s)
Visibility: 1.25 miles (2.01 km)
Ceiling: 1500 feet AGL
Clouds: few clouds at 1000 feet AGL
broken clouds at 1500 feet AGL
overcast cloud deck at 2500 feet AGL
Weather: -SN  (light snow)

METAR text: KDTW 190824Z 04006KT 2SM -SN FEW010 BKN025 OVC040 M04/M08 A3019 RMK AO2 TWR VIS 4 P0000 T10441078
Conditions at: KDTW (DETROIT/WAYNE , MI, US) observed 0824 UTC 19 January 2019
Temperature: -4.4°C (24°F)
Dewpoint: -7.8°C (18°F) [RH = 77%]
Pressure (altimeter): 30.19 inches Hg (1022.4 mb)
Winds: from the NE (40 degrees) at 7 MPH (6 knots; 3.1 m/s)
Visibility: 2.00 miles (3.22 km)
Ceiling: 2500 feet AGL
Clouds: few clouds at 1000 feet AGL
broken clouds at 2500 feet AGL
overcast cloud deck at 4000 feet AGL
Weather: -SN  (light snow)

METAR text: KDTW 190753Z 05011KT 8SM -SN OVC050 M04/M09 A3017 RMK AO2 SLP225 P0000 T10441094
Conditions at: KDTW (DETROIT/WAYNE , MI, US) observed 0753 UTC 19 January 2019
Temperature: -4.4°C (24°F)
Dewpoint: -9.4°C (15°F) [RH = 68%]
Pressure (altimeter): 30.17 inches Hg (1021.8 mb)
[Sea-level pressure: 1022.5 mb]
Winds: from the NE (50 degrees) at 13 MPH (11 knots; 5.7 m/s)
Visibility: 8 miles (13 km)
Ceiling: 5000 feet AGL
Clouds: overcast cloud deck at 5000 feet AGL
Weather: -SN  (light snow)

METAR text: KDTW 190653Z 04011KT 3SM -SN SCT025 OVC032 M03/M09 A3019 RMK AO2 TWR VIS 4 SLP230 P0000 T10331094
Conditions at: KDTW (DETROIT/WAYNE , MI, US) observed 0653 UTC 19 January 2019
Temperature: -3.3°C (26°F)
Dewpoint: -9.4°C (15°F) [RH = 63%]
Pressure (altimeter): 30.19 inches Hg (1022.4 mb)
[Sea-level pressure: 1023.0 mb]
Winds: from the NE (40 degrees) at 13 MPH (11 knots; 5.7 m/s)
Visibility: 3 miles ( 5 km)
Ceiling: 3200 feet AGL
Clouds: scattered clouds at 2500 feet AGL
overcast cloud deck at 3200 feet AGL
Weather: -SN  (light snow)

METAR text: KDTW 190611Z 06010KT 2SM -SN BKN025 OVC035 M03/M08 A3021 RMK AO2 TWR VIS 4 P0000 T10331083
Conditions at: KDTW (DETROIT/WAYNE , MI, US) observed 0611 UTC 19 January 2019
Temperature: -3.3°C (26°F)
Dewpoint: -8.3°C (17°F) [RH = 68%]
Pressure (altimeter): 30.21 inches Hg (1023.1 mb)
Winds: from the ENE (60 degrees) at 12 MPH (10 knots; 5.1 m/s)
Visibility: 2.00 miles (3.22 km)
Ceiling: 2500 feet AGL
Clouds: broken clouds at 2500 feet AGL
overcast cloud deck at 3500 feet AGL
Weather: -SN  (light snow)

METAR text: KDTW 190553Z 05008KT 6SM -SN OVC038 M03/M09 A3023 RMK AO2 SNB36 SLP243 P0000 60000 T10281089 11022 21028 53003
Conditions at: KDTW (DETROIT/WAYNE , MI, US) observed 0553 UTC 19 January 2019
Temperature: -2.8°C (27°F)
Dewpoint: -8.9°C (16°F) [RH = 63%]
Pressure (altimeter): 30.23 inches Hg (1023.8 mb)
[Sea-level pressure: 1024.3 mb]
Winds: from the NE (50 degrees) at 9 MPH (8 knots; 4.1 m/s)
Visibility: 6 miles (10 km)
Ceiling: 3800 feet AGL
Clouds: overcast cloud deck at 3800 feet AGL
Weather: -SN  (light snow)

METAR text: KDTW 190453Z 05005KT 10SM FEW045 OVC075 M03/M09 A3022 RMK AO2 SLP242 T10281094 400001028
Conditions at: KDTW (DETROIT/WAYNE , MI, US) observed 0453 UTC 19 January 2019
Temperature: -2.8°C (27°F)
Dewpoint: -9.4°C (15°F) [RH = 60%]
Pressure (altimeter): 30.22 inches Hg (1023.5 mb)
[Sea-level pressure: 1024.2 mb]
Winds: from the NE (50 degrees) at 6 MPH (5 knots; 2.6 m/s)
Visibility: 10 or more miles (16+ km)
Ceiling: 7500 feet AGL
Clouds: few clouds at 4500 feet AGL
overcast cloud deck at 7500 feet AGL
Weather: no significant weather observed at this time

METAR text: KDTW 190353Z 04007KT 10SM OVC070 M03/M10 A3021 RMK AO2 SLP237 T10281100
Conditions at: KDTW (DETROIT/WAYNE , MI, US) observed 0353 UTC 19 January 2019
Temperature: -2.8°C (27°F)
Dewpoint: -10.0°C (14°F) [RH = 58%]
Pressure (altimeter): 30.21 inches Hg (1023.1 mb)
[Sea-level pressure: 1023.7 mb]
Winds: from the NE (40 degrees) at 8 MPH (7 knots; 3.6 m/s)
Visibility: 10 or more miles (16+ km)
Ceiling: 7000 feet AGL
Clouds: overcast cloud deck at 7000 feet AGL
Weather: no significant weather observed at this time

METAR text: KDTW 190253Z 03007KT 10SM OVC080 M03/M09 A3022 RMK AO2 SLP240 T10281094 50005
Conditions at: KDTW (DETROIT/WAYNE , MI, US) observed 0253 UTC 19 January 2019
Temperature: -2.8°C (27°F)
Dewpoint: -9.4°C (15°F) [RH = 60%]
Pressure (altimeter): 30.22 inches Hg (1023.5 mb)
[Sea-level pressure: 1024.0 mb]
Winds: from the NNE (30 degrees) at 8 MPH (7 knots; 3.6 m/s)
Visibility: 10 or more miles (16+ km)
Ceiling: 8000 feet AGL
Clouds: overcast cloud deck at 8000 feet AGL
Weather: no significant weather observed at this time

METAR text: KDTW 190153Z 02006KT 10SM OVC080 M03/M09 A3022 RMK AO2 SLP242 T10281089
Conditions at: KDTW (DETROIT/WAYNE , MI, US) observed 0153 UTC 19 January 2019
Temperature: -2.8°C (27°F)
Dewpoint: -8.9°C (16°F) [RH = 63%]
Pressure (altimeter): 30.22 inches Hg (1023.5 mb)
[Sea-level pressure: 1024.2 mb]
Winds: from the NNE (20 degrees) at 7 MPH (6 knots; 3.1 m/s)
Visibility: 10 or more miles (16+ km)
Ceiling: 8000 feet AGL
Clouds: overcast cloud deck at 8000 feet AGL
Weather: no significant weather observed at this time

METAR text: KDTW 190053Z 01006KT 10SM BKN070 OVC090 M02/M08 A3022 RMK AO2 SLP241 T10221083
Conditions at: KDTW (DETROIT/WAYNE , MI, US) observed 0053 UTC 19 January 2019
Temperature: -2.2°C (28°F)
Dewpoint: -8.3°C (17°F) [RH = 63%]
Pressure (altimeter): 30.22 inches Hg (1023.5 mb)
[Sea-level pressure: 1024.1 mb]
Winds: from the N (10 degrees) at 7 MPH (6 knots; 3.1 m/s)
Visibility: 10 or more miles (16+ km)
Ceiling: 7000 feet AGL
Clouds: broken clouds at 7000 feet AGL
overcast cloud deck at 9000 feet AGL
Weather: no significant weather observed at this time

METAR text: KDTW 182353Z 36005KT 10SM FEW030 OVC110 M02/M09 A3020 RMK AO2 SLP235 T10221089 11006 21022 51014
Conditions at: KDTW (DETROIT/WAYNE , MI, US) observed 2353 UTC 18 January 2019
Temperature: -2.2°C (28°F)
Dewpoint: -8.9°C (16°F) [RH = 60%]
Pressure (altimeter): 30.20 inches Hg (1022.8 mb)
[Sea-level pressure: 1023.5 mb]
Winds: from the N (360 degrees) at 6 MPH (5 knots; 2.6 m/s)
Visibility: 10 or more miles (16+ km)
Ceiling: 11000 feet AGL
Clouds: few clouds at 3000 feet AGL
overcast cloud deck at 11000 feet AGL
Weather: no significant weather observed at this time

METAR text: KDTW 182253Z 35007KT 10SM FEW028 BKN110 OVC180 M02/M08 A3019 RMK AO2 SLP230 T10171083
Conditions at: KDTW (DETROIT/WAYNE , MI, US) observed 2253 UTC 18 January 2019
Temperature: -1.7°C (29°F)
Dewpoint: -8.3°C (17°F) [RH = 61%]
Pressure (altimeter): 30.19 inches Hg (1022.4 mb)
[Sea-level pressure: 1023.0 mb]
Winds: from the N (350 degrees) at 8 MPH (7 knots; 3.6 m/s)
Visibility: 10 or more miles (16+ km)
Ceiling: 11000 feet AGL
Clouds: few clouds at 2800 feet AGL
broken clouds at 11000 feet AGL
overcast cloud deck at 18000 feet AGL
Weather: no significant weather observed at this time

METAR text: KDTW 182153Z 33008KT 10SM SCT028 OVC180 M02/M08 A3018 RMK AO2 SLP226 T10171083
Conditions at: KDTW (DETROIT/WAYNE , MI, US) observed 2153 UTC 18 January 2019
Temperature: -1.7°C (29°F)
Dewpoint: -8.3°C (17°F) [RH = 61%]
Pressure (altimeter): 30.18 inches Hg (1022.1 mb)
[Sea-level pressure: 1022.6 mb]
Winds: from the NNW (330 degrees) at 9 MPH (8 knots; 4.1 m/s)
Visibility: 10 or more miles (16+ km)
Ceiling: 18000 feet AGL
Clouds: scattered clouds at 2800 feet AGL
overcast cloud deck at 18000 feet AGL
Weather: no significant weather observed at this time

METAR text: KDTW 182109Z 30009KT 10SM SCT028 OVC180 M01/M08 A3016 RMK AO2 T10111078
Conditions at: KDTW (DETROIT/WAYNE , MI, US) observed 2109 UTC 18 January 2019
Temperature: -1.1°C (30°F)
Dewpoint: -7.8°C (18°F) [RH = 60%]
Pressure (altimeter): 30.16 inches Hg (1021.4 mb)
Winds: from the WNW (300 degrees) at 10 MPH (9 knots; 4.6 m/s)
Visibility: 10 or more miles (16+ km)
Ceiling: 18000 feet AGL
Clouds: scattered clouds at 2800 feet AGL
overcast cloud deck at 18000 feet AGL
Weather: no significant weather observed at this time

METAR text: KDTW 182053Z 30009KT 10SM BKN028 OVC180 M01/M08 A3016 RMK AO2 SLP220 T10111078 51008
Conditions at: KDTW (DETROIT/WAYNE , MI, US) observed 2053 UTC 18 January 2019
Temperature: -1.1°C (30°F)
Dewpoint: -7.8°C (18°F) [RH = 60%]
Pressure (altimeter): 30.16 inches Hg (1021.4 mb)
[Sea-level pressure: 1022.0 mb]
Winds: from the WNW (300 degrees) at 10 MPH (9 knots; 4.6 m/s)
Visibility: 10 or more miles (16+ km)
Ceiling: 2800 feet AGL
Clouds: broken clouds at 2800 feet AGL
overcast cloud deck at 18000 feet AGL
Weather: no significant weather observed at this time

METAR text: KDTW 181953Z 32007KT 10SM FEW024 OVC028 M01/M07 A3015 RMK AO2 SLP217 T10111072
Conditions at: KDTW (DETROIT/WAYNE , MI, US) observed 1953 UTC 18 January 2019
Temperature: -1.1°C (30°F)
Dewpoint: -7.2°C (19°F) [RH = 63%]
Pressure (altimeter): 30.15 inches Hg (1021.1 mb)
[Sea-level pressure: 1021.7 mb]
Winds: from the NW (320 degrees) at 8 MPH (7 knots; 3.6 m/s)
Visibility: 10 or more miles (16+ km)
Ceiling: 2800 feet AGL
Clouds: few clouds at 2400 feet AGL
overcast cloud deck at 2800 feet AGL
Weather: no significant weather observed at this time

METAR text: KDTW 181853Z 31011KT 9SM SCT020 OVC025 M01/M06 A3015 RMK AO2 SLP217 T10111061
Conditions at: KDTW (DETROIT/WAYNE , MI, US) observed 1853 UTC 18 January 2019
Temperature: -1.1°C (30°F)
Dewpoint: -6.1°C (21°F) [RH = 69%]
Pressure (altimeter): 30.15 inches Hg (1021.1 mb)
[Sea-level pressure: 1021.7 mb]
Winds: from the NW (310 degrees) at 13 MPH (11 knots; 5.7 m/s)
Visibility: 9 miles (14 km)
Ceiling: 2500 feet AGL
Clouds: scattered clouds at 2000 feet AGL
overcast cloud deck at 2500 feet AGL
Weather: no significant weather observed at this time

METAR text: KDTW 181753Z 32012KT 9SM BKN017 OVC022 M01/M06 A3014 RMK AO2 SLP212 60000 T10061056 10000 21011 50011
Conditions at: KDTW (DETROIT/WAYNE , MI, US) observed 1753 UTC 18 January 2019
Temperature: -0.6°C (31°F)
Dewpoint: -5.6°C (22°F) [RH = 69%]
Pressure (altimeter): 30.14 inches Hg (1020.7 mb)
[Sea-level pressure: 1021.2 mb]
Winds: from the NW (320 degrees) at 14 MPH (12 knots; 6.2 m/s)
Visibility: 9 miles (14 km)
Ceiling: 1700 feet AGL
Clouds: broken clouds at 1700 feet AGL
overcast cloud deck at 2200 feet AGL
Weather: no significant weather observed at this time

METAR text: KDTW 181653Z 32008KT 8SM FEW016 OVC020 M01/M06 A3014 RMK AO2 SLP213 T10061056
Conditions at: KDTW (DETROIT/WAYNE , MI, US) observed 1653 UTC 18 January 2019
Temperature: -0.6°C (31°F)
Dewpoint: -5.6°C (22°F) [RH = 69%]
Pressure (altimeter): 30.14 inches Hg (1020.7 mb)
[Sea-level pressure: 1021.3 mb]
Winds: from the NW (320 degrees) at 9 MPH (8 knots; 4.1 m/s)
Visibility: 8 miles (13 km)
Ceiling: 2000 feet AGL
Clouds: few clouds at 1600 feet AGL
overcast cloud deck at 2000 feet AGL
Weather: no significant weather observed at this time

METAR text: KDTW 181553Z 29010KT 8SM FEW018 OVC021 M01/M06 A3014 RMK AO2 SLP213 T10061056
Conditions at: KDTW (DETROIT/WAYNE , MI, US) observed 1553 UTC 18 January 2019
Temperature: -0.6°C (31°F)
Dewpoint: -5.6°C (22°F) [RH = 69%]
Pressure (altimeter): 30.14 inches Hg (1020.7 mb)
[Sea-level pressure: 1021.3 mb]
Winds: from the WNW (290 degrees) at 12 MPH (10 knots; 5.1 m/s)
Visibility: 8 miles (13 km)
Ceiling: 2100 feet AGL
Clouds: few clouds at 1800 feet AGL
overcast cloud deck at 2100 feet AGL
Weather: no significant weather observed at this time

METAR text: KDTW 181453Z 30009KT 6SM HZ FEW016 SCT020 OVC028 00/M04 A3010 RMK AO2 SLP201 60000 T00001039 53017
Conditions at: KDTW (DETROIT/WAYNE , MI, US) observed 1453 UTC 18 January 2019
Temperature: 0.0°C (32°F)
Dewpoint: -3.9°C (25°F) [RH = 75%]
Pressure (altimeter): 30.10 inches Hg (1019.4 mb)
[Sea-level pressure: 1020.1 mb]
Winds: from the WNW (300 degrees) at 10 MPH (9 knots; 4.6 m/s)
Visibility: 6 miles (10 km)
Ceiling: 2800 feet AGL
Clouds: few clouds at 1600 feet AGL
scattered clouds at 2000 feet AGL
overcast cloud deck at 2800 feet AGL
Weather: HZ  (haze)

METAR text: KDTW 181353Z 26005KT 2 1/2SM BR SCT011 BKN017 OVC025 M01/M03 A3007 RMK AO2 SNE00 SLP191 P0000 T10061028
Conditions at: KDTW (DETROIT/WAYNE , MI, US) observed 1353 UTC 18 January 2019
Temperature: -0.6°C (31°F)
Dewpoint: -2.8°C (27°F) [RH = 85%]
Pressure (altimeter): 30.07 inches Hg (1018.4 mb)
[Sea-level pressure: 1019.1 mb]
Winds: from the W (260 degrees) at 6 MPH (5 knots; 2.6 m/s)
Visibility: 2.50 miles (4.02 km)
Ceiling: 1700 feet AGL
Clouds: scattered clouds at 1100 feet AGL
broken clouds at 1700 feet AGL
overcast cloud deck at 2500 feet AGL
Weather: BR  (mist)

METAR text: KDTW 181346Z 27005KT 2 1/2SM BR BKN009 BKN017 OVC025 M01/M03 A3007 RMK AO2 TWR VIS 4 SNE00 P0000 T10061028
Conditions at: KDTW (DETROIT/WAYNE , MI, US) observed 1346 UTC 18 January 2019
Temperature: -0.6°C (31°F)
Dewpoint: -2.8°C (27°F) [RH = 85%]
Pressure (altimeter): 30.07 inches Hg (1018.4 mb)
Winds: from the W (270 degrees) at 6 MPH (5 knots; 2.6 m/s)
Visibility: 2.50 miles (4.02 km)
Ceiling: 900 feet AGL
Clouds: broken clouds at 900 feet AGL
broken clouds at 1700 feet AGL
overcast cloud deck at 2500 feet AGL
Weather: BR  (mist)

METAR text: KDTW 181338Z 27005KT 3SM BR BKN009 BKN018 OVC025 M01/M03 A3007 RMK AO2 TWR VIS 4 SNE00 P0000 T10061028
Conditions at: KDTW (DETROIT/WAYNE , MI, US) observed 1338 UTC 18 January 2019
Temperature: -0.6°C (31°F)
Dewpoint: -2.8°C (27°F) [RH = 85%]
Pressure (altimeter): 30.07 inches Hg (1018.4 mb)
Winds: from the W (270 degrees) at 6 MPH (5 knots; 2.6 m/s)
Visibility: 3 miles ( 5 km)
Ceiling: 900 feet AGL
Clouds: broken clouds at 900 feet AGL
broken clouds at 1800 feet AGL
overcast cloud deck at 2500 feet AGL
Weather: BR  (mist)

METAR text: KDTW 181253Z 29006KT 3SM -SN OVC011 M01/M03 A3007 RMK AO2 TWR VIS 4 SLP190 P0000 T10061033
Conditions at: KDTW (DETROIT/WAYNE , MI, US) observed 1253 UTC 18 January 2019
Temperature: -0.6°C (31°F)
Dewpoint: -3.3°C (26°F) [RH = 82%]
Pressure (altimeter): 30.07 inches Hg (1018.4 mb)
[Sea-level pressure: 1019.0 mb]
Winds: from the WNW (290 degrees) at 7 MPH (6 knots; 3.1 m/s)
Visibility: 3 miles ( 5 km)
Ceiling: 1100 feet AGL
Clouds: overcast cloud deck at 1100 feet AGL
Weather: -SN  (light snow)

METAR text: KDTW 181153Z 27004KT 3SM -SN OVC011 M01/M03 A3005 RMK AO2 TWR VIS 4 SLP183 P0000 60000 70003 T10061033 11006 21011 53012
Conditions at: KDTW (DETROIT/WAYNE , MI, US) observed 1153 UTC 18 January 2019
Temperature: -0.6°C (31°F)
Dewpoint: -3.3°C (26°F) [RH = 82%]
Pressure (altimeter): 30.05 inches Hg (1017.7 mb)
[Sea-level pressure: 1018.3 mb]
Winds: from the W (270 degrees) at 5 MPH (4 knots; 2.1 m/s)
Visibility: 3 miles ( 5 km)
Ceiling: 1100 feet AGL
Clouds: overcast cloud deck at 1100 feet AGL
Weather: -SN  (light snow)

METAR text: KDTW 181116Z 28005KT 3SM -SN BKN011 OVC025 M01/M03 A3004 RMK AO2 TWR VIS 4 P0000 T10061033
Conditions at: KDTW (DETROIT/WAYNE , MI, US) observed 1116 UTC 18 January 2019
Temperature: -0.6°C (31°F)
Dewpoint: -3.3°C (26°F) [RH = 82%]
Pressure (altimeter): 30.04 inches Hg (1017.4 mb)
Winds: from the W (280 degrees) at 6 MPH (5 knots; 2.6 m/s)
Visibility: 3 miles ( 5 km)
Ceiling: 1100 feet AGL
Clouds: broken clouds at 1100 feet AGL
overcast cloud deck at 2500 feet AGL
Weather: -SN  (light snow)

METAR text: KDTW 181053Z 27005KT 3SM -SN SCT012 OVC025 M01/M03 A3003 RMK AO2 TWR VIS 4 SNB12 SLP176 P0000 T10061033
Conditions at: KDTW (DETROIT/WAYNE , MI, US) observed 1053 UTC 18 January 2019
Temperature: -0.6°C (31°F)
Dewpoint: -3.3°C (26°F) [RH = 82%]
Pressure (altimeter): 30.03 inches Hg (1017.0 mb)
[Sea-level pressure: 1017.6 mb]
Winds: from the W (270 degrees) at 6 MPH (5 knots; 2.6 m/s)
Visibility: 3 miles ( 5 km)
Ceiling: 2500 feet AGL
Clouds: scattered clouds at 1200 feet AGL
overcast cloud deck at 2500 feet AGL
Weather: -SN  (light snow)

METAR text: KDTW 181015Z 28005KT 3SM -SN SCT012 BKN020 OVC050 M01/M03 A3002 RMK AO2 TWR VIS 4 SNB12 P0000 T10061033
Conditions at: KDTW (DETROIT/WAYNE , MI, US) observed 1015 UTC 18 January 2019
Temperature: -0.6°C (31°F)
Dewpoint: -3.3°C (26°F) [RH = 82%]
Pressure (altimeter): 30.02 inches Hg (1016.7 mb)
Winds: from the W (280 degrees) at 6 MPH (5 knots; 2.6 m/s)
Visibility: 3 miles ( 5 km)
Ceiling: 2000 feet AGL
Clouds: scattered clouds at 1200 feet AGL
broken clouds at 2000 feet AGL
overcast cloud deck at 5000 feet AGL
Weather: -SN  (light snow)

METAR text: KDTW 180953Z 28007KT 4SM HZ FEW012 SCT025 OVC050 M01/M03 A3002 RMK AO2 SLP174 T10061033
Conditions at: KDTW (DETROIT/WAYNE , MI, US) observed 0953 UTC 18 January 2019
Temperature: -0.6°C (31°F)
Dewpoint: -3.3°C (26°F) [RH = 82%]
Pressure (altimeter): 30.02 inches Hg (1016.7 mb)
[Sea-level pressure: 1017.4 mb]
Winds: from the W (280 degrees) at 8 MPH (7 knots; 3.6 m/s)
Visibility: 4 miles ( 6 km)
Ceiling: 5000 feet AGL
Clouds: few clouds at 1200 feet AGL
scattered clouds at 2500 feet AGL
overcast cloud deck at 5000 feet AGL
Weather: HZ  (haze)

METAR text: KDTW 180916Z 29006KT 4SM HZ SCT012 OVC045 M01/M03 A3001 RMK AO2 T10061033
Conditions at: KDTW (DETROIT/WAYNE , MI, US) observed 0916 UTC 18 January 2019
Temperature: -0.6°C (31°F)
Dewpoint: -3.3°C (26°F) [RH = 82%]
Pressure (altimeter): 30.01 inches Hg (1016.3 mb)
Winds: from the WNW (290 degrees) at 7 MPH (6 knots; 3.1 m/s)
Visibility: 4 miles ( 6 km)
Ceiling: 4500 feet AGL
Clouds: scattered clouds at 1200 feet AGL
overcast cloud deck at 4500 feet AGL
Weather: HZ  (haze)

METAR text: KDTW 180853Z 28006KT 4SM HZ BKN012 OVC045 M01/M03 A3002 RMK AO2 SNE37 SLP171 P0000 60000 T10061033 53013
Conditions at: KDTW (DETROIT/WAYNE , MI, US) observed 0853 UTC 18 January 2019
Temperature: -0.6°C (31°F)
Dewpoint: -3.3°C (26°F) [RH = 82%]
Pressure (altimeter): 30.02 inches Hg (1016.7 mb)
[Sea-level pressure: 1017.1 mb]
Winds: from the W (280 degrees) at 7 MPH (6 knots; 3.1 m/s)
Visibility: 4 miles ( 6 km)
Ceiling: 1200 feet AGL
Clouds: broken clouds at 1200 feet AGL
overcast cloud deck at 4500 feet AGL
Weather: HZ  (haze)

METAR text: KDTW 180842Z 29007KT 4SM HZ BKN012 OVC045 M01/M03 A3001 RMK AO2 SNE37 P0000 T10061033
Conditions at: KDTW (DETROIT/WAYNE , MI, US) observed 0842 UTC 18 January 2019
Temperature: -0.6°C (31°F)
Dewpoint: -3.3°C (26°F) [RH = 82%]
Pressure (altimeter): 30.01 inches Hg (1016.3 mb)
Winds: from the WNW (290 degrees) at 8 MPH (7 knots; 3.6 m/s)
Visibility: 4 miles ( 6 km)
Ceiling: 1200 feet AGL
Clouds: broken clouds at 1200 feet AGL
overcast cloud deck at 4500 feet AGL
Weather: HZ  (haze)

METAR text: KDTW 180753Z 29006KT 3SM -SN BKN009 OVC035 M01/M03 A3000 RMK AO2 TWR VIS 4 SLP166 P0000 T10061033
Conditions at: KDTW (DETROIT/WAYNE , MI, US) observed 0753 UTC 18 January 2019
Temperature: -0.6°C (31°F)
Dewpoint: -3.3°C (26°F) [RH = 82%]
Pressure (altimeter): 30.00 inches Hg (1016.0 mb)
[Sea-level pressure: 1016.6 mb]
Winds: from the WNW (290 degrees) at 7 MPH (6 knots; 3.1 m/s)
Visibility: 3 miles ( 5 km)
Ceiling: 900 feet AGL
Clouds: broken clouds at 900 feet AGL
overcast cloud deck at 3500 feet AGL
Weather: -SN  (light snow)

METAR text: KDTW 180738Z 29006KT 3SM -SN BR BKN009 OVC035 M01/M03 A2999 RMK AO2 TWR VIS 4 P0000 T10061028
Conditions at: KDTW (DETROIT/WAYNE , MI, US) observed 0738 UTC 18 January 2019
Temperature: -0.6°C (31°F)
Dewpoint: -2.8°C (27°F) [RH = 85%]
Pressure (altimeter): 29.99 inches Hg (1015.7 mb)
Winds: from the WNW (290 degrees) at 7 MPH (6 knots; 3.1 m/s)
Visibility: 3 miles ( 5 km)
Ceiling: 900 feet AGL
Clouds: broken clouds at 900 feet AGL
overcast cloud deck at 3500 feet AGL
Weather: -SN BR  (light snow, mist)

METAR text: KDTW 180653Z 30006KT 2SM -SN BR BKN008 OVC035 M01/M03 A2998 RMK AO2 SLP160 P0000 T10061028
Conditions at: KDTW (DETROIT/WAYNE , MI, US) observed 0653 UTC 18 January 2019
Temperature: -0.6°C (31°F)
Dewpoint: -2.8°C (27°F) [RH = 85%]
Pressure (altimeter): 29.98 inches Hg (1015.3 mb)
[Sea-level pressure: 1016.0 mb]
Winds: from the WNW (300 degrees) at 7 MPH (6 knots; 3.1 m/s)
Visibility: 2.00 miles (3.22 km)
Ceiling: 800 feet AGL
Clouds: broken clouds at 800 feet AGL
overcast cloud deck at 3500 feet AGL
Weather: -SN BR  (light snow, mist)

METAR text: KDTW 180610Z 29005KT 2SM -SN BR OVC005 M01/M03 A2998 RMK AO2 P0000 T10111028
Conditions at: KDTW (DETROIT/WAYNE , MI, US) observed 0610 UTC 18 January 2019
Temperature: -1.1°C (30°F)
Dewpoint: -2.8°C (27°F) [RH = 88%]
Pressure (altimeter): 29.98 inches Hg (1015.3 mb)
Winds: from the WNW (290 degrees) at 6 MPH (5 knots; 2.6 m/s)
Visibility: 2.00 miles (3.22 km)
Ceiling: 500 feet AGL
Clouds: overcast cloud deck at 500 feet AGL
Weather: -SN BR  (light snow, mist)

METAR text: KDTW 180553Z 29005KT 1 1/2SM -SN BR OVC004 M01/M03 A2998 RMK AO2 TWR VIS 2 SNB24 SLP159 P0000 60000 T10111028 11006 21011 56002
Conditions at: KDTW (DETROIT/WAYNE , MI, US) observed 0553 UTC 18 January 2019
Temperature: -1.1°C (30°F)
Dewpoint: -2.8°C (27°F) [RH = 88%]
Pressure (altimeter): 29.98 inches Hg (1015.3 mb)
[Sea-level pressure: 1015.9 mb]
Winds: from the WNW (290 degrees) at 6 MPH (5 knots; 2.6 m/s)
Visibility: 1.50 miles (2.41 km)
Ceiling: 400 feet AGL
Clouds: overcast cloud deck at 400 feet AGL
Weather: -SN BR  (light snow, mist)

METAR text: KDTW 180533Z COR 29007KT 1 1/2SM -SN BR OVC003 M01/M02 A2998 RMK AO2 SNB24 P0000 T10111022
Conditions at: KDTW (DETROIT/WAYNE , MI, US) observed 0533 UTC 18 January 2019
Temperature: -1.1°C (30°F)
Dewpoint: -2.2°C (28°F) [RH = 92%]
Pressure (altimeter): 29.98 inches Hg (1015.3 mb)
Winds: from the WNW (290 degrees) at 8 MPH (7 knots; 3.6 m/s)
Visibility: 1.50 miles (2.41 km)
Ceiling: 300 feet AGL
Clouds: overcast cloud deck at 300 feet AGL
Weather: -SN BR  (light snow, mist)

METAR text: KDTW 180525Z 28006KT 1/4SM R03R/5000VP6000FT -SN BR VV002 M01/M02 A2999 RMK AO2 SFC VIS 3/4 SNB24 P0000 T10111022
Conditions at: KDTW (DETROIT/WAYNE , MI, US) observed 0525 UTC 18 January 2019
Temperature: -1.1°C (30°F)
Dewpoint: -2.2°C (28°F) [RH = 92%]
Pressure (altimeter): 29.99 inches Hg (1015.7 mb)
Winds: from the W (280 degrees) at 7 MPH (6 knots; 3.1 m/s)
Visibility: 0.25 miles (0.40 km)
Ceiling: indefinite ceiling with vertical visibility of 200 feet AGL
Clouds: obscured sky
Weather: -SN BR  (light snow, mist)

METAR text: KDTW 180504Z 29005KT 1/4SM R03R/5500VP6000FT FZFG VV001 M01/M02 A2999 RMK AO2 T10111022
Conditions at: KDTW (DETROIT/WAYNE , MI, US) observed 0504 UTC 18 January 2019
Temperature: -1.1°C (30°F)
Dewpoint: -2.2°C (28°F) [RH = 92%]
Pressure (altimeter): 29.99 inches Hg (1015.7 mb)
Winds: from the WNW (290 degrees) at 6 MPH (5 knots; 2.6 m/s)
Visibility: 0.25 miles (0.40 km)
Ceiling: indefinite ceiling with vertical visibility of 100 feet AGL
Clouds: obscured sky
Weather: FZFG  (freezing fog)

METAR text: KDTW 180453Z 28005KT 1/4SM R03R/4500V5000FT FZFG OVC002 M01/M02 A2998 RMK AO2 SFC VIS 1/2 SNE04 SLP161 P0000 T10111022 410061061
Conditions at: KDTW (DETROIT/WAYNE , MI, US) observed 0453 UTC 18 January 2019
Temperature: -1.1°C (30°F)
Dewpoint: -2.2°C (28°F) [RH = 92%]
Pressure (altimeter): 29.98 inches Hg (1015.3 mb)
[Sea-level pressure: 1016.1 mb]
Winds: from the W (280 degrees) at 6 MPH (5 knots; 2.6 m/s)
Visibility: 0.25 miles (0.40 km)
Ceiling: 200 feet AGL
Clouds: overcast cloud deck at 200 feet AGL
Weather: FZFG  (freezing fog)

METAR text: KDTW 180435Z 28004KT 1/4SM R03R/4000V5500FT FZFG OVC002 M01/M02 A2998 RMK AO2 SFC VIS 1/2 SNE04 P0000 T10111022
Conditions at: KDTW (DETROIT/WAYNE , MI, US) observed 0435 UTC 18 January 2019
Temperature: -1.1°C (30°F)
Dewpoint: -2.2°C (28°F) [RH = 92%]
Pressure (altimeter): 29.98 inches Hg (1015.3 mb)
Winds: from the W (280 degrees) at 5 MPH (4 knots; 2.1 m/s)
Visibility: 0.25 miles (0.40 km)
Ceiling: 200 feet AGL
Clouds: overcast cloud deck at 200 feet AGL
Weather: FZFG  (freezing fog)

METAR text: KDTW 180408Z 29003KT 3/4SM R03R/5000VP6000FT BR OVC002 M01/M02 A2998 RMK AO2 TWR VIS 1 1/2 SNE04 P0000 T10111022
Conditions at: KDTW (DETROIT/WAYNE , MI, US) observed 0408 UTC 18 January 2019
Temperature: -1.1°C (30°F)
Dewpoint: -2.2°C (28°F) [RH = 92%]
Pressure (altimeter): 29.98 inches Hg (1015.3 mb)
Winds: from the WNW (290 degrees) at 3 MPH (3 knots; 1.5 m/s)
Visibility: 0.75 miles (1.21 km)
Ceiling: 200 feet AGL
Clouds: overcast cloud deck at 200 feet AGL
Weather: BR  (mist)

METAR text: KDTW 180353Z 30003KT 1SM R03R/P6000FT -SN BR OVC004 M01/M02 A2997 RMK AO2 TWR VIS 1 1/2 SNB38 SLP158 P0000 T10061022
Conditions at: KDTW (DETROIT/WAYNE , MI, US) observed 0353 UTC 18 January 2019
Temperature: -0.6°C (31°F)
Dewpoint: -2.2°C (28°F) [RH = 89%]
Pressure (altimeter): 29.97 inches Hg (1015.0 mb)
[Sea-level pressure: 1015.8 mb]
Winds: from the WNW (300 degrees) at 3 MPH (3 knots; 1.5 m/s)
Visibility: 1.00 miles (1.61 km)
Ceiling: 400 feet AGL
Clouds: overcast cloud deck at 400 feet AGL
Weather: -SN BR  (light snow, mist)

METAR text: KDTW 180338Z 00000KT 1 1/2SM -SN BR OVC004 M01/M03 A2998 RMK AO2 SNB38 P0000 T10061028
Conditions at: KDTW (DETROIT/WAYNE , MI, US) observed 0338 UTC 18 January 2019
Temperature: -0.6°C (31°F)
Dewpoint: -2.8°C (27°F) [RH = 85%]
Pressure (altimeter): 29.98 inches Hg (1015.3 mb)
Winds: calm
Visibility: 1.50 miles (2.41 km)
Ceiling: 400 feet AGL
Clouds: overcast cloud deck at 400 feet AGL
Weather: -SN BR  (light snow, mist)

METAR text: KDTW 180321Z VRB03KT 2 1/2SM BR OVC004 M01/M03 A2998 RMK AO2 TWR VIS 4 T10061028
Conditions at: KDTW (DETROIT/WAYNE , MI, US) observed 0321 UTC 18 January 2019
Temperature: -0.6°C (31°F)
Dewpoint: -2.8°C (27°F) [RH = 85%]
Pressure (altimeter): 29.98 inches Hg (1015.3 mb)
Winds: variable direction winds at 3 MPH (3 knots; 1.5 m/s)
Visibility: 2.50 miles (4.02 km)
Ceiling: 400 feet AGL
Clouds: overcast cloud deck at 400 feet AGL
Weather: BR  (mist)

METAR text: KDTW 180253Z 18003KT 6SM BR OVC004 M01/M02 A2998 RMK AO2 SLP161 60000 T10061022 58004
Conditions at: KDTW (DETROIT/WAYNE , MI, US) observed 0253 UTC 18 January 2019
Temperature: -0.6°C (31°F)
Dewpoint: -2.2°C (28°F) [RH = 89%]
Pressure (altimeter): 29.98 inches Hg (1015.3 mb)
[Sea-level pressure: 1016.1 mb]
Winds: from the S (180 degrees) at 3 MPH (3 knots; 1.5 m/s)
Visibility: 6 miles (10 km)
Ceiling: 400 feet AGL
Clouds: overcast cloud deck at 400 feet AGL
Weather: BR  (mist)

METAR text: KDTW 180153Z 00000KT 7SM OVC004 M01/M03 A2999 RMK AO2 SNE36 SLP162 P0000 T10061028
Conditions at: KDTW (DETROIT/WAYNE , MI, US) observed 0153 UTC 18 January 2019
Temperature: -0.6°C (31°F)
Dewpoint: -2.8°C (27°F) [RH = 85%]
Pressure (altimeter): 29.99 inches Hg (1015.7 mb)
[Sea-level pressure: 1016.2 mb]
Winds: calm
Visibility: 7 miles (11 km)
Ceiling: 400 feet AGL
Clouds: overcast cloud deck at 400 feet AGL
Weather: no significant weather observed at this time

METAR text: KDTW 180145Z 00000KT 7SM OVC004 M01/M03 A2999 RMK AO2 SNE36 P0000 T10061028
Conditions at: KDTW (DETROIT/WAYNE , MI, US) observed 0145 UTC 18 January 2019
Temperature: -0.6°C (31°F)
Dewpoint: -2.8°C (27°F) [RH = 85%]
Pressure (altimeter): 29.99 inches Hg (1015.7 mb)
Winds: calm
Visibility: 7 miles (11 km)
Ceiling: 400 feet AGL
Clouds: overcast cloud deck at 400 feet AGL
Weather: no significant weather observed at this time

METAR text: KDTW 180053Z 00000KT 4SM -SN BR OVC006 M01/M03 A3000 RMK AO2 SLP166 P0000 T10111028
Conditions at: KDTW (DETROIT/WAYNE , MI, US) observed 0053 UTC 18 January 2019
Temperature: -1.1°C (30°F)
Dewpoint: -2.8°C (27°F) [RH = 88%]
Pressure (altimeter): 30.00 inches Hg (1016.0 mb)
[Sea-level pressure: 1016.6 mb]
Winds: calm
Visibility: 4 miles ( 6 km)
Ceiling: 600 feet AGL
Clouds: overcast cloud deck at 600 feet AGL
Weather: -SN BR  (light snow, mist)

METAR text: KDTW 180048Z 00000KT 4SM -SN BR OVC006 M01/M03 A3000 RMK AO2 P0000
Conditions at: KDTW (DETROIT/WAYNE , MI, US) observed 0048 UTC 18 January 2019
Temperature: -1.0°C (30°F)
Dewpoint: -3.0°C (27°F) [RH = 86%]
Pressure (altimeter): 30.00 inches Hg (1016.0 mb)
Winds: calm
Visibility: 4 miles ( 6 km)
Ceiling: 600 feet AGL
Clouds: overcast cloud deck at 600 feet AGL
Weather: -SN BR  (light snow, mist)

Forecast for: KDTW (DETROIT/WAYNE , MI, US)
Text: KDTW 191120Z 1912/2018 05011KT 2SM -SN BR OVC015
Forecast period: 1200 to 1500 UTC 19 January 2019
Forecast type: FROM: standard forecast or significant change
Winds: from the NE (50 degrees) at 13 MPH (11 knots; 5.7 m/s)
Visibility: 2.00 miles (3.22 km)
Ceiling: 1500 feet AGL
Clouds: overcast cloud deck at 1500 feet AGL
Weather: -SN BR  (light snow, mist)
Text: FM191500 04015KT 1SM -SN BR OVC009
Forecast period: 1500 to 1800 UTC 19 January 2019
Forecast type: FROM: standard forecast or significant change
Winds: from the NE (40 degrees) at 17 MPH (15 knots; 7.7 m/s)
Visibility: 1.00 miles (1.61 km)
Ceiling: 900 feet AGL
Clouds: overcast cloud deck at 900 feet AGL
Weather: -SN BR  (light snow, mist)
Text: FM191800 03015G24KT 5SM -SN BR BKN015 OVC025
Forecast period: 1800 to 2100 UTC 19 January 2019
Forecast type: FROM: standard forecast or significant change
Winds: from the NNE (30 degrees) at 17 MPH (15 knots; 7.7 m/s)
gusting to 28 MPH (24 knots; 12.3 m/s)
Visibility: 5 miles (8 km)
Ceiling: 1500 feet AGL
Clouds: broken clouds at 1500 feet AGL
overcast cloud deck at 2500 feet AGL
Weather: -SN BR  (light snow, mist)
Text: FM192100 02014G24KT P6SM SCT015 OVC030
Forecast period: 2100 UTC 19 January 2019 to 0200 UTC 20 January 2019
Forecast type: FROM: standard forecast or significant change
Winds: from the NNE (20 degrees) at 16 MPH (14 knots; 7.2 m/s)
gusting to 28 MPH (24 knots; 12.3 m/s)
Visibility: 6 or more miles 10+ km)
Ceiling: 3000 feet AGL
Clouds: scattered clouds at 1500 feet AGL
overcast cloud deck at 3000 feet AGL
Weather: no significant weather forecast for this period
Text: FM200200 01016G26KT P6SM OVC025
Forecast period: 0200 to 1000 UTC 20 January 2019
Forecast type: FROM: standard forecast or significant change
Winds: from the N (10 degrees) at 18 MPH (16 knots; 8.2 m/s)
gusting to 30 MPH (26 knots; 13.4 m/s)
Visibility: 6 or more miles 10+ km)
Ceiling: 2500 feet AGL
Clouds: overcast cloud deck at 2500 feet AGL
Weather: no significant weather forecast for this period
Text: FM201000 35013G23KT P6SM BKN028
Forecast period: 1000 to 1600 UTC 20 January 2019
Forecast type: FROM: standard forecast or significant change
Winds: from the N (350 degrees) at 15 MPH (13 knots; 6.7 m/s)
gusting to 26 MPH (23 knots; 11.8 m/s)
Visibility: 6 or more miles 10+ km)
Ceiling: 2800 feet AGL
Clouds: broken clouds at 2800 feet AGL
Weather: no significant weather forecast for this period
Text: FM201600 34012G22KT P6SM SCT030
Forecast period: 1600 to 1800 UTC 20 January 2019
Forecast type: FROM: standard forecast or significant change
Winds: from the NNW (340 degrees) at 14 MPH (12 knots; 6.2 m/s)
gusting to 25 MPH (22 knots; 11.3 m/s)
Visibility: 6 or more miles 10+ km)
Ceiling: at least 12,000 feet AGL
Clouds: scattered clouds at 3000 feet AGL
Weather: no significant weather forecast for this period